sensor_id;sensor_type;location;lat;lon;timestamp;P1;durP1;ratioP1;P2;durP2;ratioP2
70320;SDS011;61127;55.826;37.046;2022-11-15T00:02:07;2.72;;;0.50;;
70320;SDS011;61127;55.826;37.046;2022-11-15T00:04:59;1.85;;;0.50;;
70320;SDS011;61127;55.826;37.046;2022-11-15T00:07:56;3.60;;;0.63;;
70320;SDS011;61127;55.826;37.046;2022-11-15T00:10:55;1.60;;;0.50;;
70320;SDS011;61127;55.826;37.046;2022-11-15T00:14:00;1.50;;;0.50;;
70320;SDS011;61127;55.826;37.046;2022-11-15T00:16:52;1.67;;;0.75;;
70320;SDS011;61127;55.826;37.046;2022-11-15T00:19:44;1.30;;;0.47;;
70320;SDS011;61127;55.826;37.046;2022-11-15T00:22:32;2.03;;;0.40;;
70320;SDS011;61127;55.826;37.046;2022-11-15T00:25:18;2.03;;;0.95;;
70320;SDS011;61127;55.826;37.046;2022-11-15T00:28:02;4.90;;;0.90;;
70320;SDS011;61127;55.826;37.046;2022-11-15T00:30:46;2.10;;;0.30;;
70320;SDS011;61127;55.826;37.046;2022-11-15T00:33:31;2.05;;;0.50;;
70320;SDS011;61127;55.826;37.046;2022-11-15T00:36:15;5.47;;;0.60;;
70320;SDS011;61127;55.826;37.046;2022-11-15T00:38:59;2.25;;;0.50;;
70320;SDS011;61127;55.826;37.046;2022-11-15T00:41:44;1.38;;;0.50;;
70320;SDS011;61127;55.826;37.046;2022-11-15T00:44:28;3.47;;;0.60;;
70320;SDS011;61127;55.826;37.046;2022-11-15T00:47:12;3.13;;;0.60;;
70320;SDS011;61127;55.826;37.046;2022-11-15T00:49:56;3.50;;;0.80;;
70320;SDS011;61127;55.826;37.046;2022-11-15T00:52:40;3.00;;;0.60;;
70320;SDS011;61127;55.826;37.046;2022-11-15T00:55:30;3.38;;;0.50;;
70320;SDS011;61127;55.826;37.046;2022-11-15T00:58:15;3.13;;;0.57;;
70320;SDS011;61127;55.826;37.046;2022-11-15T01:01:12;4.45;;;0.75;;
70320;SDS011;61127;55.826;37.046;2022-11-15T01:03:57;5.27;;;0.93;;
70320;SDS011;61127;55.826;37.046;2022-11-15T01:06:45;3.17;;;0.82;;
70320;SDS011;61127;55.826;37.046;2022-11-15T01:09:40;1.63;;;0.70;;
70320;SDS011;61127;55.826;37.046;2022-11-15T01:12:24;4.75;;;0.75;;
70320;SDS011;61127;55.826;37.046;2022-11-15T01:15:08;5.05;;;0.80;;
70320;SDS011;61127;55.826;37.046;2022-11-15T01:17:53;4.27;;;0.77;;
70320;SDS011;61127;55.826;37.046;2022-11-15T01:20:40;2.67;;;0.70;;
70320;SDS011;61127;55.826;37.046;2022-11-15T01:23:25;2.13;;;0.70;;
70320;SDS011;61127;55.826;37.046;2022-11-15T01:26:10;4.25;;;0.90;;
70320;SDS011;61127;55.826;37.046;2022-11-15T01:28:54;3.70;;;0.70;;
70320;SDS011;61127;55.826;37.046;2022-11-15T01:31:38;3.80;;;0.80;;
70320;SDS011;61127;55.826;37.046;2022-11-15T01:34:22;4.35;;;0.80;;
70320;SDS011;61127;55.826;37.046;2022-11-15T01:37:06;3.92;;;0.77;;
70320;SDS011;61127;55.826;37.046;2022-11-15T01:39:51;3.65;;;0.95;;
70320;SDS011;61127;55.826;37.046;2022-11-15T01:42:35;2.05;;;0.70;;
70320;SDS011;61127;55.826;37.046;2022-11-15T01:45:20;3.33;;;0.80;;
70320;SDS011;61127;55.826;37.046;2022-11-15T01:48:07;4.70;;;0.80;;
70320;SDS011;61127;55.826;37.046;2022-11-15T01:50:52;4.20;;;0.80;;
70320;SDS011;61127;55.826;37.046;2022-11-15T01:53:36;3.10;;;0.70;;
70320;SDS011;61127;55.826;37.046;2022-11-15T01:59:09;3.50;;;0.80;;
70320;SDS011;61127;55.826;37.046;2022-11-15T02:01:54;3.00;;;0.80;;
70320;SDS011;61127;55.826;37.046;2022-11-15T02:04:42;4.07;;;0.80;;
70320;SDS011;61127;55.826;37.046;2022-11-15T02:07:29;3.70;;;0.80;;
70320;SDS011;61127;55.826;37.046;2022-11-15T02:10:18;5.93;;;0.80;;
70320;SDS011;61127;55.826;37.046;2022-11-15T02:13:03;2.90;;;0.80;;
70320;SDS011;61127;55.826;37.046;2022-11-15T02:18:46;2.80;;;0.73;;
70320;SDS011;61127;55.826;37.046;2022-11-15T02:21:35;3.00;;;1.00;;
70320;SDS011;61127;55.826;37.046;2022-11-15T02:27:50;3.70;;;0.90;;
70320;SDS011;61127;55.826;37.046;2022-11-15T02:36:34;6.22;;;0.80;;
70320;SDS011;61127;55.826;37.046;2022-11-15T02:39:25;2.30;;;0.70;;
70320;SDS011;61127;55.826;37.046;2022-11-15T02:42:13;1.77;;;0.67;;
70320;SDS011;61127;55.826;37.046;2022-11-15T02:45:21;1.27;;;0.60;;
70320;SDS011;61127;55.826;37.046;2022-11-15T02:48:07;3.80;;;0.77;;
70320;SDS011;61127;55.826;37.046;2022-11-15T02:50:53;4.95;;;0.80;;
70320;SDS011;61127;55.826;37.046;2022-11-15T02:53:37;3.47;;;0.85;;
70320;SDS011;61127;55.826;37.046;2022-11-15T02:56:22;3.47;;;0.70;;
70320;SDS011;61127;55.826;37.046;2022-11-15T02:59:13;4.88;;;0.80;;
70320;SDS011;61127;55.826;37.046;2022-11-15T03:08:01;5.45;;;0.85;;
70320;SDS011;61127;55.826;37.046;2022-11-15T03:13:45;4.80;;;0.82;;
70320;SDS011;61127;55.826;37.046;2022-11-15T03:19:52;1.55;;;0.60;;
70320;SDS011;61127;55.826;37.046;2022-11-15T03:22:38;4.53;;;0.70;;
70320;SDS011;61127;55.826;37.046;2022-11-15T03:25:24;3.60;;;0.73;;
70320;SDS011;61127;55.826;37.046;2022-11-15T03:28:11;3.55;;;0.50;;
70320;SDS011;61127;55.826;37.046;2022-11-15T03:30:57;2.53;;;0.60;;
70320;SDS011;61127;55.826;37.046;2022-11-15T03:33:42;2.85;;;0.75;;
70320;SDS011;61127;55.826;37.046;2022-11-15T03:36:28;2.15;;;0.50;;
70320;SDS011;61127;55.826;37.046;2022-11-15T03:39:14;3.80;;;0.70;;
70320;SDS011;61127;55.826;37.046;2022-11-15T03:45:14;2.55;;;0.52;;
70320;SDS011;61127;55.826;37.046;2022-11-15T03:48:01;4.47;;;0.70;;
70320;SDS011;61127;55.826;37.046;2022-11-15T03:50:46;3.50;;;0.60;;
70320;SDS011;61127;55.826;37.046;2022-11-15T03:53:31;3.67;;;0.70;;
70320;SDS011;61127;55.826;37.046;2022-11-15T03:56:16;3.92;;;0.70;;
70320;SDS011;61127;55.826;37.046;2022-11-15T03:59:01;1.10;;;0.60;;
70320;SDS011;61127;55.826;37.046;2022-11-15T04:01:45;2.83;;;0.43;;
70320;SDS011;61127;55.826;37.046;2022-11-15T04:04:29;0.77;;;0.50;;
70320;SDS011;61127;55.826;37.046;2022-11-15T04:07:13;2.57;;;0.50;;
70320;SDS011;61127;55.826;37.046;2022-11-15T04:09:58;3.25;;;0.60;;
70320;SDS011;61127;55.826;37.046;2022-11-15T04:12:51;4.55;;;0.95;;
70320;SDS011;61127;55.826;37.046;2022-11-15T04:15:38;2.22;;;0.73;;
70320;SDS011;61127;55.826;37.046;2022-11-15T04:18:22;1.98;;;0.60;;
70320;SDS011;61127;55.826;37.046;2022-11-15T04:21:07;3.53;;;0.80;;
70320;SDS011;61127;55.826;37.046;2022-11-15T04:24:16;5.53;;;0.60;;
70320;SDS011;61127;55.826;37.046;2022-11-15T04:27:00;1.85;;;0.50;;
70320;SDS011;61127;55.826;37.046;2022-11-15T04:29:48;2.60;;;0.52;;
70320;SDS011;61127;55.826;37.046;2022-11-15T04:32:35;2.97;;;0.70;;
70320;SDS011;61127;55.826;37.046;2022-11-15T04:35:20;3.17;;;0.60;;
70320;SDS011;61127;55.826;37.046;2022-11-15T04:38:05;2.45;;;0.85;;
70320;SDS011;61127;55.826;37.046;2022-11-15T04:40:49;3.83;;;0.75;;
70320;SDS011;61127;55.826;37.046;2022-11-15T04:43:34;2.50;;;0.60;;
70320;SDS011;61127;55.826;37.046;2022-11-15T04:49:08;5.67;;;0.90;;
70320;SDS011;61127;55.826;37.046;2022-11-15T04:51:52;4.53;;;0.80;;
70320;SDS011;61127;55.826;37.046;2022-11-15T04:54:37;5.93;;;0.80;;
70320;SDS011;61127;55.826;37.046;2022-11-15T04:57:21;5.13;;;0.80;;
70320;SDS011;61127;55.826;37.046;2022-11-15T05:00:06;3.88;;;0.65;;
70320;SDS011;61127;55.826;37.046;2022-11-15T05:02:51;5.87;;;0.80;;
70320;SDS011;61127;55.826;37.046;2022-11-15T05:05:55;5.47;;;0.70;;
70320;SDS011;61127;55.826;37.046;2022-11-15T05:08:39;4.25;;;0.63;;
70320;SDS011;61127;55.826;37.046;2022-11-15T05:11:23;4.03;;;0.63;;
70320;SDS011;61127;55.826;37.046;2022-11-15T05:16:58;3.33;;;0.70;;
70320;SDS011;61127;55.826;37.046;2022-11-15T05:19:42;3.97;;;0.75;;
70320;SDS011;61127;55.826;37.046;2022-11-15T05:22:28;1.75;;;0.55;;
70320;SDS011;61127;55.826;37.046;2022-11-15T05:28:00;4.53;;;0.70;;
70320;SDS011;61127;55.826;37.046;2022-11-15T05:30:45;5.80;;;0.90;;
70320;SDS011;61127;55.826;37.046;2022-11-15T05:33:29;4.72;;;0.50;;
70320;SDS011;61127;55.826;37.046;2022-11-15T05:39:17;3.70;;;0.70;;
70320;SDS011;61127;55.826;37.046;2022-11-15T05:42:04;4.75;;;1.13;;
70320;SDS011;61127;55.826;37.046;2022-11-15T05:44:49;4.93;;;0.60;;
70320;SDS011;61127;55.826;37.046;2022-11-15T05:47:34;3.53;;;0.52;;
70320;SDS011;61127;55.826;37.046;2022-11-15T05:50:19;2.00;;;0.68;;
70320;SDS011;61127;55.826;37.046;2022-11-15T05:53:03;7.32;;;1.00;;
70320;SDS011;61127;55.826;37.046;2022-11-15T05:55:49;7.32;;;0.98;;
70320;SDS011;61127;55.826;37.046;2022-11-15T05:58:32;4.27;;;0.70;;
70320;SDS011;61127;55.826;37.046;2022-11-15T06:01:17;4.60;;;0.80;;
70320;SDS011;61127;55.826;37.046;2022-11-15T06:04:02;5.07;;;0.75;;
70320;SDS011;61127;55.826;37.046;2022-11-15T06:06:46;7.10;;;1.10;;
70320;SDS011;61127;55.826;37.046;2022-11-15T06:09:30;2.67;;;0.60;;
70320;SDS011;61127;55.826;37.046;2022-11-15T06:12:14;10.37;;;1.37;;
70320;SDS011;61127;55.826;37.046;2022-11-15T06:15:02;3.65;;;0.90;;
70320;SDS011;61127;55.826;37.046;2022-11-15T06:17:46;5.07;;;1.00;;
70320;SDS011;61127;55.826;37.046;2022-11-15T06:20:31;4.93;;;0.90;;
70320;SDS011;61127;55.826;37.046;2022-11-15T06:23:15;5.95;;;1.10;;
70320;SDS011;61127;55.826;37.046;2022-11-15T06:26:00;9.77;;;1.00;;
70320;SDS011;61127;55.826;37.046;2022-11-15T06:28:45;5.05;;;1.00;;
70320;SDS011;61127;55.826;37.046;2022-11-15T06:31:29;9.30;;;1.00;;
70320;SDS011;61127;55.826;37.046;2022-11-15T06:34:13;5.45;;;0.95;;
70320;SDS011;61127;55.826;37.046;2022-11-15T06:36:58;8.52;;;0.90;;
70320;SDS011;61127;55.826;37.046;2022-11-15T06:39:42;1.87;;;0.90;;
70320;SDS011;61127;55.826;37.046;2022-11-15T06:42:26;4.38;;;0.93;;
70320;SDS011;61127;55.826;37.046;2022-11-15T06:45:12;4.68;;;1.55;;
70320;SDS011;61127;55.826;37.046;2022-11-15T06:47:57;4.15;;;0.90;;
70320;SDS011;61127;55.826;37.046;2022-11-15T06:50:42;5.72;;;0.70;;
70320;SDS011;61127;55.826;37.046;2022-11-15T06:53:26;4.03;;;0.80;;
70320;SDS011;61127;55.826;37.046;2022-11-15T06:56:11;7.05;;;1.00;;
70320;SDS011;61127;55.826;37.046;2022-11-15T06:58:56;7.00;;;0.93;;
70320;SDS011;61127;55.826;37.046;2022-11-15T07:01:40;7.72;;;1.00;;
70320;SDS011;61127;55.826;37.046;2022-11-15T07:04:26;5.47;;;1.00;;
70320;SDS011;61127;55.826;37.046;2022-11-15T07:07:11;10.67;;;1.40;;
70320;SDS011;61127;55.826;37.046;2022-11-15T07:09:55;8.93;;;1.42;;
70320;SDS011;61127;55.826;37.046;2022-11-15T07:12:40;8.30;;;1.30;;
70320;SDS011;61127;55.826;37.046;2022-11-15T07:15:27;6.47;;;1.25;;
70320;SDS011;61127;55.826;37.046;2022-11-15T07:18:11;6.35;;;1.00;;
70320;SDS011;61127;55.826;37.046;2022-11-15T07:20:59;8.03;;;1.37;;
70320;SDS011;61127;55.826;37.046;2022-11-15T07:23:44;5.28;;;1.10;;
70320;SDS011;61127;55.826;37.046;2022-11-15T07:26:28;5.88;;;1.10;;
70320;SDS011;61127;55.826;37.046;2022-11-15T07:29:12;5.22;;;0.90;;
70320;SDS011;61127;55.826;37.046;2022-11-15T07:31:57;2.35;;;0.82;;
70320;SDS011;61127;55.826;37.046;2022-11-15T07:37:31;5.57;;;1.00;;
70320;SDS011;61127;55.826;37.046;2022-11-15T07:40:16;5.53;;;1.08;;
70320;SDS011;61127;55.826;37.046;2022-11-15T07:43:00;5.75;;;1.02;;
70320;SDS011;61127;55.826;37.046;2022-11-15T07:45:48;3.78;;;1.00;;
70320;SDS011;61127;55.826;37.046;2022-11-15T07:48:33;4.07;;;0.90;;
70320;SDS011;61127;55.826;37.046;2022-11-15T07:51:16;4.93;;;1.05;;
70320;SDS011;61127;55.826;37.046;2022-11-15T07:54:02;5.00;;;1.38;;
70320;SDS011;61127;55.826;37.046;2022-11-15T07:56:46;9.15;;;1.20;;
70320;SDS011;61127;55.826;37.046;2022-11-15T07:59:31;4.47;;;0.90;;
70320;SDS011;61127;55.826;37.046;2022-11-15T08:02:15;3.70;;;0.90;;
70320;SDS011;61127;55.826;37.046;2022-11-15T08:05:03;6.70;;;0.90;;
70320;SDS011;61127;55.826;37.046;2022-11-15T08:07:50;5.28;;;0.93;;
70320;SDS011;61127;55.826;37.046;2022-11-15T08:10:35;4.05;;;0.93;;
70320;SDS011;61127;55.826;37.046;2022-11-15T08:13:19;4.85;;;1.02;;
70320;SDS011;61127;55.826;37.046;2022-11-15T08:16:04;4.33;;;0.93;;
70320;SDS011;61127;55.826;37.046;2022-11-15T08:18:49;4.63;;;0.90;;
70320;SDS011;61127;55.826;37.046;2022-11-15T08:21:34;3.85;;;1.30;;
70320;SDS011;61127;55.826;37.046;2022-11-15T08:24:19;4.32;;;1.10;;
70320;SDS011;61127;55.826;37.046;2022-11-15T08:27:04;6.30;;;1.02;;
70320;SDS011;61127;55.826;37.046;2022-11-15T08:29:49;3.90;;;1.57;;
70320;SDS011;61127;55.826;37.046;2022-11-15T08:32:34;8.60;;;1.50;;
70320;SDS011;61127;55.826;37.046;2022-11-15T08:35:19;5.28;;;1.30;;
70320;SDS011;61127;55.826;37.046;2022-11-15T08:38:04;3.85;;;1.20;;
70320;SDS011;61127;55.826;37.046;2022-11-15T08:40:48;9.35;;;1.30;;
70320;SDS011;61127;55.826;37.046;2022-11-15T08:43:32;5.13;;;1.27;;
70320;SDS011;61127;55.826;37.046;2022-11-15T08:46:17;5.75;;;1.13;;
70320;SDS011;61127;55.826;37.046;2022-11-15T08:49:02;6.53;;;1.23;;
70320;SDS011;61127;55.826;37.046;2022-11-15T08:51:47;3.47;;;1.10;;
70320;SDS011;61127;55.826;37.046;2022-11-15T08:54:32;3.88;;;1.20;;
70320;SDS011;61127;55.826;37.046;2022-11-15T08:57:16;6.33;;;1.30;;
70320;SDS011;61127;55.826;37.046;2022-11-15T09:00:01;2.38;;;0.98;;
70320;SDS011;61127;55.826;37.046;2022-11-15T09:02:46;5.47;;;1.25;;
70320;SDS011;61127;55.826;37.046;2022-11-15T09:05:30;4.25;;;1.10;;
70320;SDS011;61127;55.826;37.046;2022-11-15T09:08:14;4.75;;;1.40;;
70320;SDS011;61127;55.826;37.046;2022-11-15T09:10:58;3.53;;;1.23;;
70320;SDS011;61127;55.826;37.046;2022-11-15T09:13:42;7.03;;;1.30;;
70320;SDS011;61127;55.826;37.046;2022-11-15T09:16:26;4.93;;;1.25;;
70320;SDS011;61127;55.826;37.046;2022-11-15T09:19:10;5.72;;;1.55;;
70320;SDS011;61127;55.826;37.046;2022-11-15T09:21:54;3.75;;;1.20;;
70320;SDS011;61127;55.826;37.046;2022-11-15T09:24:39;6.73;;;1.37;;
70320;SDS011;61127;55.826;37.046;2022-11-15T09:27:27;3.30;;;1.27;;
70320;SDS011;61127;55.826;37.046;2022-11-15T09:30:11;4.72;;;1.35;;
70320;SDS011;61127;55.826;37.046;2022-11-15T09:32:56;9.25;;;1.70;;
70320;SDS011;61127;55.826;37.046;2022-11-15T09:35:41;5.70;;;1.70;;
70320;SDS011;61127;55.826;37.046;2022-11-15T09:38:26;9.73;;;1.50;;
70320;SDS011;61127;55.826;37.046;2022-11-15T09:47:10;8.82;;;1.48;;
70320;SDS011;61127;55.826;37.046;2022-11-15T09:50:06;6.03;;;1.25;;
70320;SDS011;61127;55.826;37.046;2022-11-15T09:52:35;4.77;;;1.30;;
70320;SDS011;61127;55.826;37.046;2022-11-15T09:55:03;6.57;;;1.38;;
70320;SDS011;61127;55.826;37.046;2022-11-15T10:05:32;5.25;;;1.17;;
70320;SDS011;61127;55.826;37.046;2022-11-15T10:13:49;6.75;;;1.50;;
70320;SDS011;61127;55.826;37.046;2022-11-15T10:16:01;4.60;;;2.03;;
70320;SDS011;61127;55.826;37.046;2022-11-15T10:18:35;6.82;;;1.33;;
70320;SDS011;61127;55.826;37.046;2022-11-15T10:21:18;7.28;;;1.30;;
70320;SDS011;61127;55.826;37.046;2022-11-15T10:23:45;5.40;;;1.52;;
70320;SDS011;61127;55.826;37.046;2022-11-15T10:26:13;8.57;;;1.70;;
70320;SDS011;61127;55.826;37.046;2022-11-15T10:28:40;6.78;;;1.35;;
70320;SDS011;61127;55.826;37.046;2022-11-15T10:31:20;4.38;;;1.38;;
70320;SDS011;61127;55.826;37.046;2022-11-15T10:33:48;6.22;;;1.55;;
70320;SDS011;61127;55.826;37.046;2022-11-15T10:39:01;4.40;;;1.30;;
70320;SDS011;61127;55.826;37.046;2022-11-15T10:44:28;8.07;;;1.80;;
70320;SDS011;61127;55.826;37.046;2022-11-15T10:51:48;5.10;;;1.40;;
70320;SDS011;61127;55.826;37.046;2022-11-15T10:57:28;3.17;;;1.20;;
70320;SDS011;61127;55.826;37.046;2022-11-15T10:59:54;5.83;;;1.20;;
70320;SDS011;61127;55.826;37.046;2022-11-15T11:02:36;5.28;;;1.23;;
70320;SDS011;61127;55.826;37.046;2022-11-15T11:05:05;9.52;;;1.58;;
70320;SDS011;61127;55.826;37.046;2022-11-15T11:07:32;5.68;;;1.33;;
70320;SDS011;61127;55.826;37.046;2022-11-15T11:10:02;5.63;;;1.27;;
70320;SDS011;61127;55.826;37.046;2022-11-15T11:12:32;9.93;;;2.27;;
70320;SDS011;61127;55.826;37.046;2022-11-15T11:14:59;5.97;;;1.40;;
70320;SDS011;61127;55.826;37.046;2022-11-15T11:17:35;5.00;;;1.33;;
70320;SDS011;61127;55.826;37.046;2022-11-15T11:27:57;3.17;;;1.10;;
70320;SDS011;61127;55.826;37.046;2022-11-15T11:30:31;7.80;;;1.52;;
70320;SDS011;61127;55.826;37.046;2022-11-15T11:35:49;4.95;;;1.52;;
70320;SDS011;61127;55.826;37.046;2022-11-15T11:43:41;5.40;;;1.30;;
70320;SDS011;61127;55.826;37.046;2022-11-15T11:48:43;7.13;;;2.28;;
70320;SDS011;61127;55.826;37.046;2022-11-15T11:51:20;5.97;;;2.10;;
70320;SDS011;61127;55.826;37.046;2022-11-15T11:53:56;9.00;;;2.20;;
70320;SDS011;61127;55.826;37.046;2022-11-15T11:56:29;5.72;;;1.73;;
70320;SDS011;61127;55.826;37.046;2022-11-15T11:59:03;6.38;;;2.30;;
70320;SDS011;61127;55.826;37.046;2022-11-15T12:01:42;13.50;;;3.17;;
70320;SDS011;61127;55.826;37.046;2022-11-15T12:09:32;9.85;;;2.83;;
70320;SDS011;61127;55.826;37.046;2022-11-15T12:14:33;7.22;;;2.63;;
70320;SDS011;61127;55.826;37.046;2022-11-15T12:16:59;6.57;;;2.47;;
70320;SDS011;61127;55.826;37.046;2022-11-15T12:19:25;9.25;;;2.97;;
70320;SDS011;61127;55.826;37.046;2022-11-15T12:28:33;9.52;;;2.45;;
70320;SDS011;61127;55.826;37.046;2022-11-15T12:31:02;10.20;;;2.53;;
70320;SDS011;61127;55.826;37.046;2022-11-15T12:33:36;8.07;;;2.72;;
70320;SDS011;61127;55.826;37.046;2022-11-15T12:36:04;7.13;;;2.60;;
70320;SDS011;61127;55.826;37.046;2022-11-15T12:41:15;13.25;;;3.10;;
70320;SDS011;61127;55.826;37.046;2022-11-15T12:43:42;8.47;;;2.63;;
70320;SDS011;61127;55.826;37.046;2022-11-15T12:46:13;9.98;;;2.50;;
70320;SDS011;61127;55.826;37.046;2022-11-15T12:48:46;9.85;;;2.78;;
70320;SDS011;61127;55.826;37.046;2022-11-15T12:51:12;9.15;;;3.22;;
70320;SDS011;61127;55.826;37.046;2022-11-15T12:53:38;13.13;;;3.77;;
70320;SDS011;61127;55.826;37.046;2022-11-15T12:58:46;9.17;;;2.97;;
70320;SDS011;61127;55.826;37.046;2022-11-15T13:01:57;7.95;;;3.10;;
70320;SDS011;61127;55.826;37.046;2022-11-15T13:06:37;8.27;;;3.10;;
70320;SDS011;61127;55.826;37.046;2022-11-15T13:09:03;15.37;;;3.37;;
70320;SDS011;61127;55.826;37.046;2022-11-15T13:11:42;12.57;;;3.30;;
70320;SDS011;61127;55.826;37.046;2022-11-15T13:17:16;10.50;;;3.53;;
70320;SDS011;61127;55.826;37.046;2022-11-15T13:19:42;10.25;;;3.45;;
70320;SDS011;61127;55.826;37.046;2022-11-15T13:22:09;10.45;;;3.50;;
70320;SDS011;61127;55.826;37.046;2022-11-15T13:24:54;11.85;;;3.80;;
70320;SDS011;61127;55.826;37.046;2022-11-15T13:27:20;13.40;;;3.60;;
70320;SDS011;61127;55.826;37.046;2022-11-15T13:29:46;9.55;;;3.95;;
70320;SDS011;61127;55.826;37.046;2022-11-15T13:32:12;13.10;;;4.00;;
70320;SDS011;61127;55.826;37.046;2022-11-15T13:34:45;14.13;;;4.78;;
70320;SDS011;61127;55.826;37.046;2022-11-15T13:37:26;12.83;;;4.10;;
70320;SDS011;61127;55.826;37.046;2022-11-15T13:39:53;9.73;;;3.60;;
70320;SDS011;61127;55.826;37.046;2022-11-15T13:42:20;13.02;;;4.13;;
70320;SDS011;61127;55.826;37.046;2022-11-15T13:44:57;11.87;;;3.60;;
70320;SDS011;61127;55.826;37.046;2022-11-15T13:47:25;9.98;;;3.33;;
70320;SDS011;61127;55.826;37.046;2022-11-15T13:49:52;10.35;;;3.40;;
70320;SDS011;61127;55.826;37.046;2022-11-15T13:52:17;11.30;;;3.13;;
70320;SDS011;61127;55.826;37.046;2022-11-15T13:54:59;13.55;;;4.25;;
70320;SDS011;61127;55.826;37.046;2022-11-15T13:57:29;18.05;;;4.15;;
70320;SDS011;61127;55.826;37.046;2022-11-15T14:00:01;18.25;;;4.75;;
70320;SDS011;61127;55.826;37.046;2022-11-15T14:02:37;16.73;;;5.03;;
70320;SDS011;61127;55.826;37.046;2022-11-15T14:05:19;20.08;;;4.30;;
70320;SDS011;61127;55.826;37.046;2022-11-15T14:07:57;15.40;;;4.05;;
70320;SDS011;61127;55.826;37.046;2022-11-15T14:10:31;15.18;;;3.70;;
70320;SDS011;61127;55.826;37.046;2022-11-15T14:12:56;13.57;;;3.90;;
70320;SDS011;61127;55.826;37.046;2022-11-15T14:15:34;12.93;;;3.55;;
70320;SDS011;61127;55.826;37.046;2022-11-15T14:18:00;11.90;;;3.47;;
70320;SDS011;61127;55.826;37.046;2022-11-15T14:20:31;16.42;;;4.53;;
70320;SDS011;61127;55.826;37.046;2022-11-15T14:22:58;19.60;;;4.65;;
70320;SDS011;61127;55.826;37.046;2022-11-15T14:25:30;27.83;;;6.60;;
70320;SDS011;61127;55.826;37.046;2022-11-15T14:28:16;17.10;;;4.57;;
70320;SDS011;61127;55.826;37.046;2022-11-15T14:30:48;14.90;;;3.67;;
70320;SDS011;61127;55.826;37.046;2022-11-15T14:33:37;13.95;;;4.03;;
70320;SDS011;61127;55.826;37.046;2022-11-15T14:36:03;8.45;;;3.28;;
70320;SDS011;61127;55.826;37.046;2022-11-15T14:38:29;16.07;;;4.53;;
70320;SDS011;61127;55.826;37.046;2022-11-15T14:40:56;10.32;;;3.40;;
70320;SDS011;61127;55.826;37.046;2022-11-15T14:43:22;10.05;;;3.40;;
70320;SDS011;61127;55.826;37.046;2022-11-15T14:45:48;9.02;;;2.95;;
70320;SDS011;61127;55.826;37.046;2022-11-15T14:48:14;9.18;;;3.20;;
70320;SDS011;61127;55.826;37.046;2022-11-15T14:50:40;7.90;;;2.50;;
70320;SDS011;61127;55.826;37.046;2022-11-15T14:53:06;11.63;;;3.05;;
70320;SDS011;61127;55.826;37.046;2022-11-15T14:55:34;9.30;;;3.20;;
70320;SDS011;61127;55.826;37.046;2022-11-15T14:58:01;10.45;;;2.78;;
70320;SDS011;61127;55.826;37.046;2022-11-15T15:00:29;7.53;;;3.00;;
70320;SDS011;61127;55.826;37.046;2022-11-15T15:02:55;7.55;;;2.75;;
70320;SDS011;61127;55.826;37.046;2022-11-15T15:05:33;6.68;;;3.10;;
70320;SDS011;61127;55.826;37.046;2022-11-15T15:07:59;7.22;;;2.30;;
70320;SDS011;61127;55.826;37.046;2022-11-15T15:10:25;9.60;;;2.87;;
70320;SDS011;61127;55.826;37.046;2022-11-15T15:12:53;5.25;;;2.60;;
70320;SDS011;61127;55.826;37.046;2022-11-15T15:15:23;7.30;;;3.10;;
70320;SDS011;61127;55.826;37.046;2022-11-15T15:17:49;6.67;;;2.73;;
70320;SDS011;61127;55.826;37.046;2022-11-15T15:20:15;7.72;;;3.17;;
70320;SDS011;61127;55.826;37.046;2022-11-15T15:22:41;8.38;;;2.83;;
70320;SDS011;61127;55.826;37.046;2022-11-15T15:25:14;7.90;;;3.27;;
70320;SDS011;61127;55.826;37.046;2022-11-15T15:27:44;9.93;;;3.58;;
70320;SDS011;61127;55.826;37.046;2022-11-15T15:30:10;10.80;;;3.60;;
70320;SDS011;61127;55.826;37.046;2022-11-15T15:32:36;8.05;;;2.97;;
70320;SDS011;61127;55.826;37.046;2022-11-15T15:35:02;8.07;;;2.63;;
70320;SDS011;61127;55.826;37.046;2022-11-15T15:37:28;10.93;;;3.30;;
70320;SDS011;61127;55.826;37.046;2022-11-15T15:39:55;10.05;;;3.08;;
70320;SDS011;61127;55.826;37.046;2022-11-15T15:42:22;8.45;;;3.28;;
70320;SDS011;61127;55.826;37.046;2022-11-15T15:44:49;8.10;;;3.25;;
70320;SDS011;61127;55.826;37.046;2022-11-15T15:47:25;12.00;;;3.60;;
70320;SDS011;61127;55.826;37.046;2022-11-15T15:49:50;5.43;;;2.60;;
70320;SDS011;61127;55.826;37.046;2022-11-15T15:52:17;10.77;;;3.05;;
70320;SDS011;61127;55.826;37.046;2022-11-15T15:54:44;7.88;;;3.35;;
70320;SDS011;61127;55.826;37.046;2022-11-15T15:57:13;10.27;;;3.53;;
70320;SDS011;61127;55.826;37.046;2022-11-15T15:59:39;9.07;;;3.23;;
70320;SDS011;61127;55.826;37.046;2022-11-15T16:02:05;10.38;;;3.75;;
70320;SDS011;61127;55.826;37.046;2022-11-15T16:04:31;12.70;;;4.80;;
70320;SDS011;61127;55.826;37.046;2022-11-15T16:06:58;9.02;;;3.92;;
70320;SDS011;61127;55.826;37.046;2022-11-15T16:09:27;9.10;;;3.40;;
70320;SDS011;61127;55.826;37.046;2022-11-15T16:28:03;9.63;;;3.35;;
70320;SDS011;61127;55.826;37.046;2022-11-15T16:30:29;11.83;;;4.00;;
70320;SDS011;61127;55.826;37.046;2022-11-15T16:32:54;8.40;;;3.95;;
70320;SDS011;61127;55.826;37.046;2022-11-15T16:35:20;9.60;;;3.57;;
70320;SDS011;61127;55.826;37.046;2022-11-15T16:37:46;12.32;;;4.38;;
70320;SDS011;61127;55.826;37.046;2022-11-15T16:40:22;12.30;;;4.43;;
70320;SDS011;61127;55.826;37.046;2022-11-15T16:42:49;10.57;;;4.07;;
70320;SDS011;61127;55.826;37.046;2022-11-15T16:45:16;11.35;;;4.03;;
70320;SDS011;61127;55.826;37.046;2022-11-15T16:47:41;15.88;;;4.32;;
70320;SDS011;61127;55.826;37.046;2022-11-15T16:50:29;11.97;;;4.20;;
70320;SDS011;61127;55.826;37.046;2022-11-15T16:52:54;9.02;;;3.97;;
70320;SDS011;61127;55.826;37.046;2022-11-15T16:55:21;9.37;;;4.27;;
70320;SDS011;61127;55.826;37.046;2022-11-15T16:57:47;13.73;;;4.50;;
70320;SDS011;61127;55.826;37.046;2022-11-15T17:00:13;11.82;;;4.43;;
70320;SDS011;61127;55.826;37.046;2022-11-15T17:02:45;9.48;;;4.00;;
70320;SDS011;61127;55.826;37.046;2022-11-15T17:05:12;8.00;;;3.73;;
70320;SDS011;61127;55.826;37.046;2022-11-15T17:07:39;13.32;;;4.28;;
70320;SDS011;61127;55.826;37.046;2022-11-15T17:10:05;8.27;;;3.35;;
70320;SDS011;61127;55.826;37.046;2022-11-15T17:12:34;10.43;;;4.10;;
70320;SDS011;61127;55.826;37.046;2022-11-15T17:15:00;10.68;;;4.18;;
70320;SDS011;61127;55.826;37.046;2022-11-15T17:17:27;10.27;;;3.97;;
70320;SDS011;61127;55.826;37.046;2022-11-15T17:19:52;12.90;;;4.20;;
70320;SDS011;61127;55.826;37.046;2022-11-15T17:22:19;13.15;;;4.10;;
70320;SDS011;61127;55.826;37.046;2022-11-15T17:24:45;11.10;;;4.80;;
70320;SDS011;61127;55.826;37.046;2022-11-15T17:27:11;10.90;;;3.60;;
70320;SDS011;61127;55.826;37.046;2022-11-15T17:29:37;9.90;;;3.55;;
70320;SDS011;61127;55.826;37.046;2022-11-15T17:32:02;13.17;;;4.10;;
70320;SDS011;61127;55.826;37.046;2022-11-15T17:34:28;10.45;;;4.10;;
70320;SDS011;61127;55.826;37.046;2022-11-15T17:36:54;12.60;;;4.80;;
70320;SDS011;61127;55.826;37.046;2022-11-15T17:39:20;12.65;;;4.00;;
70320;SDS011;61127;55.826;37.046;2022-11-15T17:41:48;14.57;;;5.05;;
70320;SDS011;61127;55.826;37.046;2022-11-15T17:44:14;11.70;;;4.40;;
70320;SDS011;61127;55.826;37.046;2022-11-15T17:46:41;10.40;;;4.10;;
70320;SDS011;61127;55.826;37.046;2022-11-15T17:49:07;11.15;;;5.25;;
70320;SDS011;61127;55.826;37.046;2022-11-15T17:51:32;10.80;;;4.78;;
70320;SDS011;61127;55.826;37.046;2022-11-15T17:53:58;13.83;;;4.90;;
70320;SDS011;61127;55.826;37.046;2022-11-15T17:56:25;14.05;;;4.85;;